createdAt,value
2018-04-17T00:01:37.386Z,79.61
2018-04-17T00:04:04.998Z,79.55
2018-04-17T00:06:32.764Z,79.52
2018-04-17T00:09:00.383Z,79.46
2018-04-17T00:11:28.088Z,79.52
2018-04-17T00:13:55.707Z,79.51
2018-04-17T00:16:23.406Z,79.48
2018-04-17T00:18:51.032Z,79.39
2018-04-17T00:21:18.670Z,79.39
2018-04-17T00:23:46.397Z,79.32
2018-04-17T00:26:14.039Z,79.21
2018-04-17T00:28:41.662Z,79.06
2018-04-17T00:31:09.388Z,78.87
2018-04-17T00:33:37.046Z,78.74
2018-04-17T00:36:04.809Z,78.68
2018-04-17T00:38:32.418Z,78.70
2018-04-17T00:41:00.134Z,78.71
2018-04-17T00:43:27.743Z,78.85
2018-04-17T00:45:55.363Z,79.06
2018-04-17T00:48:23.026Z,79.12
2018-04-17T00:50:50.641Z,79.18
2018-04-17T00:53:30.707Z,79.19
2018-04-17T00:55:58.407Z,79.20
2018-04-17T00:58:26.070Z,79.20
2018-04-17T01:00:53.735Z,79.19
2018-04-17T01:03:21.386Z,79.29
2018-04-17T01:05:49.003Z,79.31
2018-04-17T01:08:16.714Z,79.29
2018-04-17T01:13:20.979Z,79.34
2018-04-17T01:15:48.591Z,79.35
2018-04-17T01:18:16.227Z,79.53
2018-04-17T01:20:43.939Z,79.64
2018-04-17T01:23:11.615Z,79.66
2018-04-17T01:25:39.243Z,79.80
2018-04-17T01:28:06.877Z,79.86
2018-04-17T01:30:34.586Z,79.87
2018-04-17T01:33:02.217Z,80.05
2018-04-17T01:35:29.826Z,80.14
2018-04-17T01:37:57.454Z,80.05
2018-04-17T01:40:25.070Z,80.12
2018-04-17T01:42:52.795Z,80.06
2018-04-17T01:45:20.461Z,80.24
2018-04-17T01:47:48.131Z,80.54
2018-04-17T01:50:15.751Z,80.60
2018-04-17T01:52:43.454Z,80.61
2018-04-17T01:55:11.066Z,80.58
2018-04-17T01:57:38.702Z,80.63
2018-04-17T02:00:06.316Z,80.57
2018-04-17T02:02:33.998Z,80.59
2018-04-17T02:05:01.626Z,80.64
2018-04-17T02:07:29.234Z,80.63
2018-04-17T02:09:56.878Z,80.67
2018-04-17T02:12:24.546Z,80.62
2018-04-17T02:14:52.178Z,80.53
2018-04-17T02:17:19.879Z,80.58
2018-04-17T02:19:47.523Z,80.55
2018-04-17T02:22:15.198Z,80.49
2018-04-17T02:24:42.835Z,80.40
2018-04-17T02:27:10.522Z,80.35
2018-04-17T02:29:38.196Z,80.37
2018-04-17T02:32:05.815Z,80.53
2018-04-17T02:34:33.519Z,80.62
2018-04-17T02:37:01.187Z,80.72
2018-04-17T02:39:28.822Z,80.73
2018-04-17T02:41:56.438Z,80.80
2018-04-17T02:44:24.163Z,80.83
2018-04-17T02:46:51.773Z,80.95
2018-04-17T02:49:19.499Z,81.17
2018-04-17T02:51:47.169Z,81.18
2018-04-17T02:54:14.818Z,81.18
2018-04-17T02:56:42.471Z,81.10
2018-04-17T02:59:10.117Z,81.07
2018-04-17T03:01:37.732Z,80.98
2018-04-17T03:04:05.366Z,80.98
2018-04-17T03:06:33.031Z,80.87
2018-04-17T03:09:00.686Z,80.87
2018-04-17T03:11:28.307Z,80.91
2018-04-17T03:13:55.942Z,81.04
2018-04-17T03:16:23.571Z,81.10
2018-04-17T03:18:51.178Z,81.12
2018-04-17T03:21:18.899Z,81.17
2018-04-17T03:23:46.566Z,81.17
2018-04-17T03:26:14.227Z,81.20
2018-04-17T03:28:41.898Z,81.16
2018-04-17T03:31:09.566Z,81.11
2018-04-17T03:33:37.200Z,81.09
2018-04-17T03:36:04.838Z,81.03
2018-04-17T03:38:32.445Z,80.96
2018-04-17T03:41:00.110Z,80.98
2018-04-17T03:43:27.725Z,81.14
2018-04-17T03:45:55.432Z,81.32
2018-04-17T03:48:23.059Z,81.42
2018-04-17T03:50:50.755Z,81.49
2018-04-17T03:53:20.043Z,81.56
2018-04-17T03:55:47.691Z,81.59
2018-04-17T03:58:15.311Z,81.55
2018-04-17T04:00:42.955Z,81.56
2018-04-17T04:03:10.598Z,81.51
2018-04-17T04:05:38.245Z,81.46
2018-04-17T04:08:05.918Z,81.42
2018-04-17T04:10:33.580Z,81.36
2018-04-17T04:13:01.198Z,81.15
2018-04-17T04:15:28.834Z,80.95
2018-04-17T04:18:08.262Z,80.65
2018-04-17T04:20:47.695Z,80.38
2018-04-17T04:26:29.355Z,79.96
2018-04-17T04:28:56.977Z,79.80
2018-04-17T04:31:24.616Z,79.75
2018-04-17T04:33:52.422Z,79.79
2018-04-17T04:36:20.253Z,80.01
2018-04-17T04:38:47.920Z,80.16
2018-04-17T04:41:15.672Z,80.27
2018-04-17T04:43:43.355Z,80.35
2018-04-17T04:46:10.977Z,80.34
2018-04-17T04:48:38.628Z,80.30
2018-04-17T04:51:06.251Z,80.34
2018-04-17T04:53:33.996Z,80.36
2018-04-17T04:56:01.827Z,80.34
2018-04-17T04:58:29.466Z,80.31
2018-04-17T05:00:57.080Z,80.27
2018-04-17T05:03:24.750Z,80.38
2018-04-17T05:05:52.365Z,80.62
2018-04-17T05:08:20.078Z,80.75
2018-04-17T05:10:48.443Z,80.96
2018-04-17T05:13:16.095Z,81.16
2018-04-17T05:15:43.713Z,81.32
2018-04-17T05:18:11.350Z,81.35
2018-04-17T05:20:38.975Z,81.36
2018-04-17T05:23:06.623Z,81.45
2018-04-17T05:25:34.466Z,81.69
2018-04-17T05:28:02.198Z,81.85
2018-04-17T05:30:29.862Z,81.93
2018-04-17T05:32:57.505Z,81.83
2018-04-17T05:35:25.180Z,81.47
2018-04-17T05:37:52.829Z,80.95
2018-04-17T05:40:20.519Z,80.59
2018-04-17T05:42:48.170Z,80.24
2018-04-17T05:45:15.795Z,79.94
2018-04-17T05:47:43.430Z,79.78
2018-04-17T05:50:11.101Z,79.68
2018-04-17T05:52:38.827Z,79.49
2018-04-17T05:55:06.441Z,79.48
2018-04-17T05:57:34.160Z,79.36
2018-04-17T06:00:01.804Z,79.24
2018-04-17T06:02:29.479Z,78.83
2018-04-17T06:04:57.132Z,78.48
2018-04-17T06:07:24.742Z,78.46
2018-04-17T06:09:52.561Z,78.23
2018-04-17T06:12:20.226Z,77.99
2018-04-17T06:14:47.988Z,77.46
2018-04-17T06:17:15.659Z,76.96
2018-04-17T06:19:43.291Z,76.42
2018-04-17T06:22:10.977Z,75.73
2018-04-17T06:24:38.651Z,74.90
2018-04-17T06:27:06.306Z,73.75
2018-04-17T06:29:33.940Z,73.73
2018-04-17T06:32:01.628Z,73.70
2018-04-17T06:34:29.267Z,73.68
2018-04-17T06:36:57.060Z,73.70
2018-04-17T06:39:24.728Z,72.80
2018-04-17T06:41:52.364Z,72.37
2018-04-17T06:44:20.564Z,72.34
2018-04-17T06:46:48.233Z,72.37
2018-04-17T06:49:15.892Z,72.01
2018-04-17T06:51:43.572Z,71.95
2018-04-17T06:54:11.206Z,71.92
2018-04-17T06:56:38.825Z,71.02
2018-04-17T06:59:06.454Z,70.61
2018-04-17T07:01:34.068Z,70.39
2018-04-17T07:04:01.730Z,70.31
2018-04-17T07:06:29.422Z,69.99
2018-04-17T07:08:57.030Z,69.21
2018-04-17T07:11:24.666Z,68.77
2018-04-17T07:13:52.315Z,68.68
2018-04-17T07:16:19.954Z,68.08
2018-04-17T07:18:47.566Z,67.99
2018-04-17T07:21:15.201Z,68.04
2018-04-17T07:23:42.906Z,67.46
2018-04-17T07:26:10.618Z,66.96
2018-04-17T07:28:38.291Z,67.13
2018-04-17T07:31:05.929Z,66.68
2018-04-17T07:33:33.538Z,65.78
2018-04-17T07:36:01.269Z,65.17
2018-04-17T07:38:28.884Z,65.60
2018-04-17T07:40:56.517Z,65.82
2018-04-17T07:43:24.122Z,65.59
2018-04-17T07:45:51.761Z,65.54
2018-04-17T07:48:31.069Z,65.50
2018-04-17T07:50:58.721Z,65.43
2018-04-17T07:53:26.379Z,64.65
2018-04-17T07:55:54.010Z,64.10
2018-04-17T07:58:21.627Z,64.52
2018-04-17T08:00:49.264Z,64.14
2018-04-17T08:03:16.873Z,63.44
2018-04-17T08:05:44.516Z,62.88
2018-04-17T08:08:12.253Z,61.18
2018-04-17T08:10:39.857Z,60.40
2018-04-17T08:13:07.583Z,60.18
2018-04-17T08:15:35.194Z,59.89
2018-04-17T08:18:02.830Z,59.50
2018-04-17T08:20:30.447Z,59.62
2018-04-17T08:22:58.134Z,58.67
2018-04-17T08:25:25.750Z,57.27
2018-04-17T08:27:53.390Z,57.42
2018-04-17T08:30:21.121Z,57.07
2018-04-17T08:32:48.764Z,56.68
2018-04-17T08:35:16.371Z,56.37
2018-04-17T08:37:44.109Z,56.51
2018-04-17T08:40:11.771Z,56.82
2018-04-17T08:42:39.408Z,57.21
2018-04-17T08:45:07.086Z,57.13
2018-04-17T08:47:34.723Z,57.75
2018-04-17T08:50:02.335Z,57.48
2018-04-17T08:52:29.972Z,57.23
2018-04-17T08:54:57.638Z,55.17
2018-04-17T08:57:25.300Z,54.75
2018-04-17T08:59:52.906Z,53.18
2018-04-17T09:02:20.631Z,53.44
2018-04-17T09:04:48.234Z,54.19
2018-04-17T09:07:15.862Z,53.26
2018-04-17T09:09:43.469Z,52.40
2018-04-17T09:12:11.094Z,52.76
2018-04-17T09:14:38.698Z,53.41
2018-04-17T09:17:06.419Z,53.33
2018-04-17T09:19:34.030Z,52.47
2018-04-17T09:22:01.721Z,51.64
2018-04-17T09:24:29.394Z,52.28
2018-04-17T09:26:57.023Z,52.55
2018-04-17T09:29:24.639Z,52.51
2018-04-17T09:31:52.371Z,52.87
2018-04-17T09:34:19.991Z,52.82
2018-04-17T09:36:47.627Z,52.00
2018-04-17T09:39:15.244Z,50.94
2018-04-17T09:41:42.874Z,49.56
2018-04-17T09:44:10.488Z,48.90
2018-04-17T09:46:38.096Z,48.93
2018-04-17T09:49:05.722Z,49.62
2018-04-17T09:51:33.327Z,49.32
2018-04-17T09:54:00.962Z,49.26
2018-04-17T09:56:28.566Z,49.77
2018-04-17T09:58:56.203Z,47.68
2018-04-17T10:01:23.812Z,47.63
2018-04-17T10:03:51.487Z,47.29
2018-04-17T10:06:19.123Z,47.45
2018-04-17T10:08:46.798Z,46.70
2018-04-17T10:11:14.394Z,46.75
2018-04-17T10:13:42.023Z,46.96
2018-04-17T10:16:09.788Z,46.41
2018-04-17T10:18:37.422Z,46.22
2018-04-17T10:21:05.113Z,46.28
2018-04-17T10:23:33.329Z,46.49
2018-04-17T10:26:00.966Z,46.91
2018-04-17T10:28:28.718Z,47.31
2018-04-17T10:30:56.322Z,47.43
2018-04-17T10:33:23.946Z,46.79
2018-04-17T10:35:51.601Z,47.28
2018-04-17T10:38:19.246Z,47.37
2018-04-17T10:40:46.926Z,47.80
2018-04-17T10:43:14.558Z,46.62
2018-04-17T10:45:42.534Z,45.92
2018-04-17T10:48:10.225Z,45.54
2018-04-17T10:50:37.830Z,45.35
2018-04-17T10:53:05.462Z,44.83
2018-04-17T10:55:33.114Z,44.17
2018-04-17T10:58:00.742Z,44.26
2018-04-17T11:00:28.350Z,44.28
2018-04-17T11:02:55.999Z,44.61
2018-04-17T11:05:23.667Z,44.26
2018-04-17T11:07:51.298Z,43.66
2018-04-17T11:10:18.913Z,43.67
2018-04-17T11:12:46.642Z,43.92
2018-04-17T11:15:14.246Z,43.90
2018-04-17T11:17:42.033Z,44.34
2018-04-17T11:20:09.645Z,44.40
2018-04-17T11:22:37.298Z,43.83
2018-04-17T11:25:04.956Z,42.97
2018-04-17T11:27:32.621Z,43.00
2018-04-17T11:30:00.250Z,43.02
2018-04-17T11:32:27.945Z,43.61
2018-04-17T11:34:55.619Z,43.73
2018-04-17T11:37:23.223Z,43.07
2018-04-17T11:39:50.846Z,42.72
2018-04-17T11:42:18.459Z,43.57
2018-04-17T11:44:46.099Z,43.00
2018-04-17T11:47:13.718Z,41.82
2018-04-17T11:49:41.377Z,41.73
2018-04-17T11:52:08.991Z,41.46
2018-04-17T11:54:36.708Z,41.85
2018-04-17T11:57:04.310Z,41.45
2018-04-17T11:59:31.942Z,41.14
2018-04-17T12:01:59.555Z,41.68
2018-04-17T12:04:27.262Z,41.24
2018-04-17T12:06:54.876Z,40.97
2018-04-17T12:09:22.580Z,41.04
2018-04-17T12:11:50.242Z,41.44
2018-04-17T12:14:17.902Z,41.71
2018-04-17T12:16:45.520Z,41.46
2018-04-17T12:19:13.155Z,41.44
2018-04-17T12:21:40.791Z,40.83
2018-04-17T12:24:08.427Z,41.03
2018-04-17T12:26:36.123Z,40.72
2018-04-17T12:29:03.765Z,40.94
2018-04-17T12:31:31.438Z,40.91
2018-04-17T12:33:59.067Z,41.04
2018-04-17T12:36:26.675Z,41.06
2018-04-17T12:38:54.309Z,40.70
2018-04-17T12:41:21.985Z,40.62
2018-04-17T12:43:49.950Z,39.88
2018-04-17T12:46:17.606Z,40.33
2018-04-17T12:48:45.243Z,40.31
2018-04-17T12:51:12.854Z,40.04
2018-04-17T12:53:40.812Z,39.81
2018-04-17T12:56:08.574Z,40.02
2018-04-17T12:58:36.585Z,39.77
2018-04-17T13:01:04.209Z,39.60
2018-04-17T13:03:31.846Z,39.51
2018-04-17T13:06:00.035Z,39.52
2018-04-17T13:08:27.652Z,40.45
2018-04-17T13:10:55.370Z,40.71
2018-04-17T13:13:23.042Z,40.47
2018-04-17T13:15:50.670Z,39.88
2018-04-17T13:18:18.275Z,40.00
2018-04-17T13:20:45.922Z,40.16
2018-04-17T13:23:13.530Z,40.16
2018-04-17T13:25:41.167Z,40.18
2018-04-17T13:28:08.816Z,40.52
2018-04-17T13:30:36.571Z,40.57
2018-04-17T13:33:04.241Z,40.92
2018-04-17T13:35:31.883Z,40.83
2018-04-17T13:37:59.504Z,40.71
2018-04-17T13:40:27.233Z,40.77
2018-04-17T13:42:54.847Z,40.21
2018-04-17T13:45:22.478Z,40.28
2018-04-17T13:47:50.134Z,39.93
2018-04-17T13:50:17.749Z,39.50
2018-04-17T13:52:45.443Z,39.88
2018-04-17T13:55:13.070Z,39.76
2018-04-17T13:57:40.758Z,39.31
2018-04-17T14:00:08.427Z,39.02
2018-04-17T14:02:36.187Z,39.00
2018-04-17T14:05:03.821Z,39.38
2018-04-17T14:07:31.510Z,39.07
2018-04-17T14:09:59.138Z,39.51
2018-04-17T14:12:26.936Z,39.00
2018-04-17T14:14:54.566Z,38.04
2018-04-17T14:17:22.195Z,37.91
2018-04-17T14:19:49.832Z,37.80
2018-04-17T14:22:17.434Z,38.09
2018-04-17T14:24:45.069Z,38.36
2018-04-17T14:27:12.710Z,38.43
2018-04-17T14:29:40.370Z,38.03
2018-04-17T14:32:07.974Z,38.14
2018-04-17T14:34:35.601Z,38.88
2018-04-17T14:37:03.205Z,38.39
2018-04-17T14:39:30.834Z,38.31
2018-04-17T14:41:58.438Z,38.50
2018-04-17T14:44:26.075Z,38.47
2018-04-17T14:46:53.688Z,38.60
2018-04-17T14:49:21.366Z,37.85
2018-04-17T14:51:49.030Z,38.04
2018-04-17T14:54:16.700Z,38.57
2018-04-17T14:56:44.354Z,38.54
2018-04-17T14:59:11.972Z,37.46
2018-04-17T15:01:39.601Z,37.20
2018-04-17T15:04:07.206Z,37.54
2018-04-17T15:06:34.902Z,38.01
2018-04-17T15:09:02.511Z,38.30
2018-04-17T15:11:30.142Z,38.25
2018-04-17T15:13:57.796Z,37.49
2018-04-17T15:16:25.431Z,37.63
2018-04-17T15:18:53.114Z,37.51
2018-04-17T15:21:20.774Z,37.43
2018-04-17T15:23:48.438Z,37.45
2018-04-17T15:26:16.065Z,37.32
2018-04-17T15:28:43.670Z,37.17
2018-04-17T15:31:11.320Z,37.09
2018-04-17T15:33:38.995Z,37.15
2018-04-17T15:36:06.666Z,37.16
2018-04-17T15:38:34.278Z,37.13
2018-04-17T15:41:01.907Z,36.94
2018-04-17T15:43:29.523Z,37.14
2018-04-17T15:45:57.166Z,36.72
2018-04-17T15:48:24.781Z,36.45
2018-04-17T15:50:52.422Z,36.41
2018-04-17T15:53:20.031Z,36.20
2018-04-17T15:55:47.658Z,36.43
2018-04-17T15:58:15.270Z,36.62
2018-04-17T16:00:42.899Z,36.35
2018-04-17T16:03:10.538Z,36.61
2018-04-17T16:05:38.191Z,37.21
2018-04-17T16:08:05.798Z,36.97
2018-04-17T16:10:33.431Z,36.90
2018-04-17T16:13:01.076Z,37.02
2018-04-17T16:15:28.719Z,37.46
2018-04-17T16:17:56.411Z,37.52
2018-04-17T16:20:24.070Z,37.49
2018-04-17T16:22:51.674Z,37.54
2018-04-17T16:25:19.302Z,38.34
2018-04-17T16:27:46.911Z,38.29
2018-04-17T16:30:14.520Z,38.69
2018-04-17T16:32:42.159Z,39.08
2018-04-17T16:35:09.765Z,39.26
2018-04-17T16:37:37.399Z,39.13
2018-04-17T16:40:05.069Z,38.94
2018-04-17T16:42:32.753Z,38.89
2018-04-17T16:45:00.354Z,38.71
2018-04-17T16:47:27.991Z,38.46
2018-04-17T16:49:55.599Z,38.40
2018-04-17T16:52:23.243Z,39.23
2018-04-17T16:54:50.871Z,39.63
2018-04-17T16:57:18.507Z,39.74
2018-04-17T16:59:46.115Z,39.66
2018-04-17T17:02:13.745Z,39.42
2018-04-17T17:04:41.392Z,39.34
2018-04-17T17:07:09.042Z,39.51
2018-04-17T17:09:36.807Z,39.73
2018-04-17T17:12:04.672Z,40.16
2018-04-17T17:14:32.273Z,40.58
2018-04-17T17:16:59.909Z,40.97
2018-04-17T17:19:27.568Z,41.23
2018-04-17T17:21:55.226Z,41.56
2018-04-17T17:24:22.886Z,41.92
2018-04-17T17:26:50.609Z,42.35
2018-04-17T17:29:18.282Z,42.69
2018-04-17T17:31:45.915Z,43.04
2018-04-17T17:34:13.690Z,43.84
2018-04-17T17:36:41.334Z,44.60
2018-04-17T17:39:08.971Z,45.44
2018-04-17T17:41:36.607Z,45.98
2018-04-17T17:44:04.287Z,46.54
2018-04-17T17:46:31.947Z,47.05
2018-04-17T17:48:59.558Z,47.64
2018-04-17T17:51:27.203Z,48.04
2018-04-17T17:53:54.827Z,48.53
2018-04-17T17:56:22.471Z,49.00
2018-04-17T17:58:50.803Z,49.26
2018-04-17T18:01:18.443Z,49.46
2018-04-17T18:03:46.067Z,49.62
2018-04-17T18:06:13.694Z,50.21
2018-04-17T18:08:41.337Z,50.17
2018-04-17T18:11:09.027Z,50.50
2018-04-17T18:13:36.658Z,50.74
2018-04-17T18:16:04.271Z,50.92
2018-04-17T18:18:31.983Z,51.25
2018-04-17T18:20:59.635Z,51.40
2018-04-17T18:23:27.279Z,51.65
2018-04-17T18:25:55.507Z,51.79
2018-04-17T18:28:23.242Z,52.01
2018-04-17T18:30:50.883Z,52.17
2018-04-17T18:33:18.565Z,52.26
2018-04-17T18:35:46.203Z,52.44
2018-04-17T18:38:13.902Z,52.74
2018-04-17T18:40:41.514Z,52.96
2018-04-17T18:43:09.143Z,53.12
2018-04-17T18:45:36.763Z,53.36
2018-04-17T18:48:04.378Z,53.54
2018-04-17T18:50:32.198Z,53.75
2018-04-17T18:52:59.806Z,53.95
2018-04-17T18:55:27.521Z,54.03
2018-04-17T18:57:55.136Z,54.34
2018-04-17T19:00:22.896Z,54.47
2018-04-17T19:02:50.510Z,54.76
2018-04-17T19:05:18.173Z,55.04
2018-04-17T19:07:45.796Z,55.28
2018-04-17T19:10:13.502Z,55.45
2018-04-17T19:12:41.123Z,55.74
2018-04-17T19:15:08.836Z,55.85
2018-04-17T19:17:36.491Z,56.01
2018-04-17T19:20:04.155Z,56.19
2018-04-17T19:22:31.776Z,56.36
2018-04-17T19:24:59.406Z,56.58
2018-04-17T19:27:27.038Z,56.92
2018-04-17T19:29:54.702Z,57.24
2018-04-17T19:32:22.309Z,57.55
2018-04-17T19:34:50.023Z,57.84
2018-04-17T19:37:17.647Z,58.07
2018-04-17T19:39:45.292Z,58.43
2018-04-17T19:42:12.923Z,58.71
2018-04-17T19:44:40.574Z,58.94
2018-04-17T19:47:08.200Z,59.20
2018-04-17T19:49:35.829Z,59.51
2018-04-17T19:52:03.468Z,59.80
2018-04-17T19:54:31.119Z,60.10
2018-04-17T19:56:58.781Z,60.43
2018-04-17T19:59:26.398Z,60.73
2018-04-17T20:01:54.738Z,61.00
2018-04-17T20:04:22.392Z,61.36
2018-04-17T20:06:50.040Z,61.77
2018-04-17T20:09:17.709Z,61.94
2018-04-17T20:11:45.332Z,62.10
2018-04-17T20:14:12.938Z,62.42
2018-04-17T20:16:40.569Z,62.58
2018-04-17T20:19:08.175Z,62.73
2018-04-17T20:21:35.811Z,62.90
2018-04-17T20:24:03.580Z,63.22
2018-04-17T20:26:31.345Z,63.41
2018-04-17T20:28:58.987Z,63.59
2018-04-17T20:31:26.679Z,63.84
2018-04-17T20:33:54.295Z,63.97
2018-04-17T20:36:21.935Z,64.17
2018-04-17T20:38:49.814Z,64.35
2018-04-17T20:41:17.534Z,64.50
2018-04-17T20:43:45.148Z,64.68
2018-04-17T20:46:12.786Z,64.86
2018-04-17T20:48:40.398Z,64.92
2018-04-17T20:51:08.031Z,65.05
2018-04-17T20:53:36.391Z,65.30
2018-04-17T20:56:04.042Z,65.42
2018-04-17T20:58:31.650Z,65.55
2018-04-17T21:00:59.348Z,65.69
2018-04-17T21:03:26.978Z,65.78
2018-04-17T21:05:54.592Z,65.97
2018-04-17T21:08:22.224Z,66.09
2018-04-17T21:10:49.835Z,66.13
2018-04-17T21:13:17.484Z,66.24
2018-04-17T21:15:45.110Z,66.36
2018-04-17T21:18:12.789Z,66.39
2018-04-17T21:20:40.445Z,66.61
2018-04-17T21:23:08.073Z,66.76
2018-04-17T21:25:35.699Z,66.86
2018-04-17T21:28:03.425Z,67.12
2018-04-17T21:30:31.116Z,67.33
2018-04-17T21:32:58.746Z,67.38
2018-04-17T21:35:26.364Z,67.50
2018-04-17T21:37:54.002Z,67.56
2018-04-17T21:40:21.637Z,67.72
2018-04-17T21:42:49.406Z,67.87
2018-04-17T21:45:17.020Z,68.01
2018-04-17T21:47:44.735Z,68.18
2018-04-17T21:50:12.390Z,68.29
2018-04-17T21:52:40.048Z,68.33
2018-04-17T21:55:07.663Z,68.54
2018-04-17T21:57:35.416Z,68.63
2018-04-17T22:00:03.153Z,68.79
2018-04-17T22:02:30.806Z,68.90
2018-04-17T22:04:58.443Z,69.04
2018-04-17T22:07:26.058Z,69.15
2018-04-17T22:09:53.695Z,69.21
2018-04-17T22:12:21.316Z,69.35
2018-04-17T22:14:48.946Z,69.33
2018-04-17T22:17:16.575Z,69.31
2018-04-17T22:19:44.210Z,69.38
2018-04-17T22:22:11.836Z,69.48
2018-04-17T22:24:39.480Z,69.50
2018-04-17T22:27:07.121Z,69.59
2018-04-17T22:29:34.792Z,69.70
2018-04-17T22:32:02.416Z,69.79
2018-04-17T22:34:30.110Z,69.79
2018-04-17T22:36:57.731Z,69.85
2018-04-17T22:39:25.358Z,69.96
2018-04-17T22:41:52.962Z,70.09
2018-04-17T22:44:20.594Z,70.19
2018-04-17T22:46:48.198Z,70.33
2018-04-17T22:49:15.822Z,70.38
2018-04-17T22:51:43.436Z,70.39
2018-04-17T22:54:11.071Z,70.39
2018-04-17T22:56:38.691Z,70.46
2018-04-17T22:59:06.346Z,70.56
2018-04-17T23:01:34.000Z,70.62
2018-04-17T23:04:01.614Z,70.57
2018-04-17T23:06:29.255Z,70.54
2018-04-17T23:08:56.987Z,70.66
2018-04-17T23:11:24.633Z,70.83
2018-04-17T23:13:52.242Z,70.85
2018-04-17T23:16:19.875Z,70.89
2018-04-17T23:18:47.487Z,70.75
2018-04-17T23:21:15.199Z,70.50
2018-04-17T23:23:42.820Z,70.54
2018-04-17T23:26:10.514Z,70.54
2018-04-17T23:28:38.178Z,70.37
2018-04-17T23:31:05.814Z,70.43
2018-04-17T23:33:33.501Z,70.80
2018-04-17T23:36:01.130Z,71.13
2018-04-17T23:38:28.743Z,71.35
2018-04-17T23:40:56.369Z,71.54
2018-04-17T23:43:23.979Z,71.69
2018-04-17T23:45:51.614Z,71.86
2018-04-17T23:48:19.266Z,71.92
2018-04-17T23:50:46.890Z,72.03
2018-04-17T23:53:14.605Z,71.93
2018-04-17T23:55:42.262Z,71.78
2018-04-17T23:58:09.877Z,71.58
